N204ZM KSAV-KSAV
Flight info
| Callsign | N204ZM |
|---|---|
| Flight time | 0h 9m |
| Altitude | VFR |
| Route | TRAFFIC PATTERN |
| Aircraft | PIAT/L-DOV/C |
Departure
| Time | 2026-04-23 16:17 |
|---|---|
| Airport | Savannah Hilton Head International Airport (KSAV) |
Arrival
| Time | 2026-04-23 16:26 |
|---|---|
| Airport | Savannah Hilton Head International Airport (KSAV) |
| Time | Latitude | Longitude | Altitude | Speed | Heading |
|---|---|---|---|---|---|
| 2026-04-23 16:11 | 32.12751 | -81.20112 | 46 ft | 0 kts | 88° |
| 2026-04-23 16:12 | 32.12752 | -81.20073 | 47 ft | 11 kts | 95° |
| 2026-04-23 16:12 | 32.12740 | -81.19966 | 48 ft | 13 kts | 118° |
| 2026-04-23 16:12 | 32.12701 | -81.19840 | 50 ft | 17 kts | 107° |
| 2026-04-23 16:13 | 32.12692 | -81.19689 | 53 ft | 23 kts | 91° |
| 2026-04-23 16:13 | 32.12688 | -81.19257 | 59 ft | 25 kts | 90° |
| 2026-04-23 16:13 | 32.12686 | -81.19062 | 62 ft | 22 kts | 90° |
| 2026-04-23 16:14 | 32.12687 | -81.18912 | 60 ft | 12 kts | 72° |
| 2026-04-23 16:14 | 32.12710 | -81.18883 | 56 ft | 0 kts | 21° |
| 2026-04-23 16:14 | 32.12729 | -81.18877 | 60 ft | 7 kts | 9° |
| 2026-04-23 16:14 | 32.12758 | -81.18875 | 60 ft | 0 kts | 0° |
| 2026-04-23 16:15 | 32.12757 | -81.18875 | 60 ft | 0 kts | 360° |
| 2026-04-23 16:16 | 32.12771 | -81.18875 | 60 ft | 8 kts | 1° |
| 2026-04-23 16:16 | 32.12847 | -81.18895 | 60 ft | 12 kts | 288° |
| 2026-04-23 16:17 | 32.12849 | -81.18946 | 59 ft | 21 kts | 272° |
| 2026-04-23 16:17 | 32.12853 | -81.19412 | 203 ft | 77 kts | 275° |
| 2026-04-23 16:17 | 32.12848 | -81.20078 | 585 ft | 82 kts | 277° |
| 2026-04-23 16:17 | 32.13134 | -81.20647 | 927 ft | 90 kts | 326° |
| 2026-04-23 16:18 | 32.13791 | -81.20731 | 1037 ft | 102 kts | 8° |
| 2026-04-23 16:18 | 32.14353 | -81.20317 | 1054 ft | 97 kts | 44° |
| 2026-04-23 16:18 | 32.14660 | -81.19634 | 1034 ft | 98 kts | 75° |
| 2026-04-23 16:18 | 32.14734 | -81.18890 | 1000 ft | 87 kts | 94° |
| 2026-04-23 16:19 | 32.14691 | -81.18196 | 966 ft | 78 kts | 104° |
| 2026-04-23 16:19 | 32.14394 | -81.17753 | 879 ft | 68 kts | 161° |
| 2026-04-23 16:19 | 32.13920 | -81.17782 | 714 ft | 71 kts | 201° |
| 2026-04-23 16:19 | 32.13481 | -81.18075 | 543 ft | 74 kts | 216° |
| 2026-04-23 16:20 | 32.13089 | -81.18424 | 367 ft | 72 kts | 224° |
| 2026-04-23 16:20 | 32.12853 | -81.18897 | 126 ft | 66 kts | 270° |
| 2026-04-23 16:20 | 32.12850 | -81.19389 | 58 ft | 51 kts | 276° |
| 2026-04-23 16:20 | 32.12857 | -81.19758 | 54 ft | 50 kts | 272° |
| 2026-04-23 16:21 | 32.12834 | -81.20338 | 278 ft | 82 kts | 273° |
| 2026-04-23 16:21 | 32.12845 | -81.21019 | 691 ft | 82 kts | 265° |
| 2026-04-23 16:21 | 32.12541 | -81.21569 | 1007 ft | 86 kts | 219° |
| 2026-04-23 16:21 | 32.11950 | -81.21735 | 1013 ft | 91 kts | 178° |
| 2026-04-23 16:22 | 32.11382 | -81.21387 | 999 ft | 97 kts | 135° |
| 2026-04-23 16:22 | 32.11106 | -81.20668 | 977 ft | 98 kts | 100° |
| 2026-04-23 16:22 | 32.11060 | -81.19923 | 931 ft | 82 kts | 88° |
| 2026-04-23 16:22 | 32.11095 | -81.19183 | 922 ft | 95 kts | 85° |
| 2026-04-23 16:23 | 32.11140 | -81.18409 | 935 ft | 96 kts | 86° |
| 2026-04-23 16:23 | 32.11149 | -81.17660 | 928 ft | 84 kts | 93° |
| 2026-04-23 16:23 | 32.11123 | -81.16929 | 915 ft | 86 kts | 92° |
| 2026-04-23 16:23 | 32.11101 | -81.16185 | 925 ft | 97 kts | 92° |
| 2026-04-23 16:24 | 32.11115 | -81.15366 | 988 ft | 102 kts | 76° |
| 2026-04-23 16:24 | 32.11485 | -81.14675 | 1009 ft | 101 kts | 36° |
| 2026-04-23 16:24 | 32.12122 | -81.14374 | 1053 ft | 97 kts | 358° |
| 2026-04-23 16:24 | 32.12697 | -81.14687 | 1071 ft | 92 kts | 309° |
| 2026-04-23 16:25 | 32.12881 | -81.15287 | 931 ft | 74 kts | 268° |
| 2026-04-23 16:25 | 32.12859 | -81.15876 | 797 ft | 71 kts | 268° |
| 2026-04-23 16:25 | 32.12836 | -81.16438 | 656 ft | 68 kts | 269° |
| 2026-04-23 16:25 | 32.12819 | -81.16992 | 556 ft | 67 kts | 272° |
| 2026-04-23 16:26 | 32.12813 | -81.17533 | 398 ft | 64 kts | 276° |
| 2026-04-23 16:26 | 32.12832 | -81.18050 | 233 ft | 65 kts | 278° |
| 2026-04-23 16:26 | 32.12845 | -81.18599 | 80 ft | 65 kts | 275° |
| 2026-04-23 16:26 | 32.12847 | -81.19043 | 60 ft | 45 kts | 274° |
| 2026-04-23 16:27 | 32.12852 | -81.19400 | 76 ft | 61 kts | 268° |
| 2026-04-23 16:27 | 32.12851 | -81.19969 | 280 ft | 81 kts | 274° |
| 2026-04-23 16:27 | 32.12849 | -81.20685 | 632 ft | 87 kts | 263° |
| 2026-04-23 16:27 | 32.12510 | -81.21236 | 1033 ft | 78 kts | 210° |
| 2026-04-23 16:28 | 32.11981 | -81.21211 | 801 ft | 83 kts | 160° |
| 2026-04-23 16:28 | 32.11505 | -81.20873 | 635 ft | 77 kts | 135° |
| 2026-04-23 16:28 | 32.11326 | -81.20291 | 432 ft | 75 kts | 76° |
| 2026-04-23 16:28 | 32.11632 | -81.19999 | 170 ft | 59 kts | 0° |
| 2026-04-23 16:29 | 32.11998 | -81.20000 | 39 ft | 46 kts | 359° |
| 2026-04-23 16:29 | 32.12252 | -81.20004 | 44 ft | 29 kts | 359° |
| 2026-04-23 16:29 | 32.12437 | -81.20007 | 42 ft | 26 kts | 359° |
| 2026-04-23 16:29 | 32.12614 | -81.20009 | 47 ft | 24 kts | 358° |
| 2026-04-23 16:30 | 32.12734 | -81.20031 | 47 ft | 13 kts | 316° |
| 2026-04-23 16:30 | 32.12751 | -81.20127 | 46 ft | 9 kts | 269° |
| 2026-04-23 16:30 | 32.12751 | -81.20136 | 46 ft | 0 kts | 269° |
| 2026-04-23 16:30 | 32.12751 | -81.20142 | 46 ft | 6 kts | 271° |
| 2026-04-23 16:31 | 32.12752 | -81.20249 | 45 ft | 15 kts | 270° |
| 2026-04-23 16:31 | 32.12706 | -81.20325 | 44 ft | 13 kts | 166° |
| 2026-04-23 16:31 | 32.12614 | -81.20276 | 43 ft | 15 kts | 149° |
| 2026-04-23 16:31 | 32.12521 | -81.20224 | 43 ft | 12 kts | 202° |
| 2026-04-23 16:32 | 32.12507 | -81.20321 | 41 ft | 14 kts | 271° |
| 2026-04-23 16:32 | 32.12505 | -81.20442 | 39 ft | 16 kts | 270° |
| 2026-04-23 16:32 | 32.12516 | -81.20541 | 39 ft | 8 kts | 336° |
| 2026-04-23 16:32 | 32.12530 | -81.20592 | 39 ft | 7 kts | 276° |
| 2026-04-23 16:33 | 32.12537 | -81.20606 | 40 ft | 0 kts | 354° |